Time;durP1;ratioP1;P1;durP2;ratioP2;P2;SDS_P1;SDS_P2;PMS_P1;PMS_P2;Temp;Humidity;BMP_temperature;BMP_pressure;BME280_temperature;BME280_humidity;BME280_pressure;Samples;Min_cycle;Max_cycle;Signal;HPM_P1;HPM_P2
2023/10/02 00:01:23;;;;;;;;;;;16.70;99.90;;;;;;5083803;28;19927;-80
2023/10/02 00:04:15;;;;;;;;;;;16.60;99.90;;;;;;5131362;27;20025;-80
2023/10/02 00:06:36;;;;;;;;;;;16.60;99.90;;;;;;5094640;28;20114;-80
2023/10/02 00:09:05;;;;;;;;;;;16.60;99.90;;;;;;5085087;28;20263;-80
2023/10/02 00:11:37;;;;;;;;;;;16.50;99.90;;;;;;5100405;28;19968;-80
2023/10/02 00:14:19;;;;;;;;;;;16.50;99.90;;;;;;5101602;28;20343;-80
2023/10/02 00:16:58;;;;;;;;;;;16.50;99.90;;;;;;5085039;27;19966;-81
2023/10/02 00:19:29;;;;;;;;;;;16.40;99.90;;;;;;5097794;28;19923;-80
2023/10/02 00:22:03;;;;;;;;;;;16.40;99.90;;;;;;5083687;28;19977;-81
2023/10/02 00:24:32;;;;;;;;;;;16.30;99.90;;;;;;5102536;28;20021;-81
2023/10/02 00:26:58;;;;;;;;;;;16.30;99.90;;;;;;5134316;27;19930;-81
2023/10/02 00:29:25;;;;;;;;;;;16.30;99.90;;;;;;5103789;28;19969;-81
2023/10/02 00:31:51;;;;;;;;;;;16.30;99.90;;;;;;5088807;28;20010;-81
2023/10/02 00:34:16;;;;;;;;;;;16.30;99.90;;;;;;5098732;28;20452;-81
2023/10/02 00:36:42;;;;;;;;;;;16.20;99.90;;;;;;5119445;27;19927;-80
2023/10/02 00:39:31;;;;;;;;;;;16.20;99.90;;;;;;5102258;28;19928;-80
2023/10/02 00:44:58;;;;;;;;;;;16.20;99.90;;;;;;5090710;28;19924;-80
2023/10/02 00:47:45;;;;;;;;;;;16.20;99.90;;;;;;5134343;27;19924;-79
2023/10/02 00:50:21;;;;;;;;;;;16.20;99.90;;;;;;5101272;28;19963;-81
2023/10/02 00:52:59;;;;;;;;;;;16.20;99.90;;;;;;5088636;28;19939;-80
2023/10/02 00:55:26;;;;;;;;;;;16.20;99.90;;;;;;5110265;27;19973;-80
2023/10/02 00:57:58;;;;;;;;;;;16.20;99.90;;;;;;5102601;28;19928;-80
2023/10/02 01:01:11;;;;;;;;;;;16.30;99.90;;;;;;5122048;27;19924;-79
2023/10/02 01:03:16;;;;;;;;;;;16.30;99.90;;;;;;5087909;28;19931;-80
2023/10/02 01:05:54;;;;;;;;;;;16.30;99.90;;;;;;5120120;27;19924;-80
2023/10/02 01:08:23;;;;;;;;;;;16.40;99.90;;;;;;5099864;28;20326;-80
2023/10/02 01:10:56;;;;;;;;;;;16.40;99.90;;;;;;5083372;28;19928;-79
2023/10/02 01:13:29;;;;;;;;;;;16.40;99.90;;;;;;5105597;27;19924;-80
2023/10/02 01:15:56;;;;;;;;;;;16.40;99.90;;;;;;5098181;27;20383;-79
2023/10/02 01:18:21;;;;;;;;;;;16.40;99.90;;;;;;5135639;27;19931;-79
2023/10/02 01:20:53;;;;;;;;;;;16.50;99.90;;;;;;5099033;27;19927;-79
2023/10/02 01:23:26;;;;;;;;;;;16.50;99.90;;;;;;5073384;28;19924;-79
2023/10/02 01:25:57;;;;;;;;;;;16.60;99.90;;;;;;5100436;28;19972;-79
2023/10/02 01:28:29;;;;;;;;;;;16.60;99.90;;;;;;5087635;28;20014;-79
2023/10/02 01:30:55;;;;;;;;;;;16.60;99.90;;;;;;5085601;28;19927;-79
2023/10/02 01:33:22;;;;;;;;;;;16.60;99.90;;;;;;5103167;28;20068;-79
2023/10/02 01:35:54;;;;;;;;;;;16.60;99.90;;;;;;5085227;28;19928;-79
2023/10/02 01:38:30;;;;;;;;;;;16.70;99.90;;;;;;5115930;27;19924;-79
2023/10/02 01:41:04;;;;;;;;;;;16.70;99.90;;;;;;5102530;27;19934;-79
2023/10/02 01:43:42;;;;;;;;;;;16.70;99.90;;;;;;5096978;28;20018;-79
2023/10/02 01:46:10;;;;;;;;;;;16.60;99.90;;;;;;5096728;28;19935;-79
2023/10/02 01:48:37;;;;;;;;;;;16.70;99.90;;;;;;5097649;28;19927;-80
2023/10/02 01:51:15;;;;;;;;;;;16.70;99.90;;;;;;5086572;28;19927;-80
2023/10/02 01:53:48;;;;;;;;;;;16.70;99.90;;;;;;5085304;28;19923;-80
2023/10/02 01:56:15;;;;;;;;;;;16.70;99.90;;;;;;5099929;28;19924;-80
2023/10/02 01:58:44;;;;;;;;;;;16.70;99.90;;;;;;5098448;28;19932;-80
2023/10/02 02:01:10;;;;;;;;;;;16.70;99.90;;;;;;5087019;28;20030;-79
2023/10/02 02:03:41;;;;;;;;;;;16.70;99.90;;;;;;5103358;27;20592;-80
2023/10/02 02:06:09;;;;;;;;;;;16.70;99.90;;;;;;5104740;28;19982;-80
2023/10/02 02:08:36;;;;;;;;;;;16.80;99.90;;;;;;5086533;28;19959;-80
2023/10/02 02:11:14;;;;;;;;;;;16.80;99.90;;;;;;5098305;27;19934;-80
2023/10/02 02:13:44;;;;;;;;;;;16.80;99.90;;;;;;5085504;28;20323;-80
2023/10/02 02:16:17;;;;;;;;;;;16.80;99.90;;;;;;5118934;27;19928;-80
2023/10/02 02:18:43;;;;;;;;;;;16.80;99.90;;;;;;5098675;28;19935;-79
2023/10/02 02:21:16;;;;;;;;;;;16.80;99.90;;;;;;5084799;28;19938;-79
2023/10/02 02:23:42;;;;;;;;;;;16.80;99.90;;;;;;5078311;28;19989;-80
2023/10/02 02:26:11;;;;;;;;;;;16.80;99.90;;;;;;5089822;28;20378;-80
2023/10/02 02:28:47;;;;;;;;;;;16.90;99.90;;;;;;5132137;27;20381;-80
2023/10/02 02:31:31;;;;;;;;;;;16.90;99.90;;;;;;5081326;28;21274;-79
2023/10/02 02:34:01;;;;;;;;;;;16.90;99.90;;;;;;5087945;28;20413;-79
2023/10/02 02:36:28;;;;;;;;;;;16.80;99.90;;;;;;5118130;27;19930;-79
2023/10/02 02:39:16;;;;;;;;;;;16.80;99.90;;;;;;5084212;28;20352;-79
2023/10/02 02:41:42;;;;;;;;;;;16.80;99.90;;;;;;5078419;27;20018;-79
2023/10/02 02:44:29;;;;;;;;;;;16.80;99.90;;;;;;5080373;28;20280;-79
2023/10/02 02:46:56;;;;;;;;;;;16.80;99.90;;;;;;5097444;28;19974;-79
2023/10/02 02:49:23;;;;;;;;;;;16.80;99.90;;;;;;5134371;27;19996;-79
2023/10/02 02:51:49;;;;;;;;;;;16.80;99.90;;;;;;5083720;28;19931;-79
2023/10/02 02:54:15;;;;;;;;;;;16.80;99.90;;;;;;5097524;28;20309;-78
2023/10/02 02:56:41;;;;;;;;;;;16.80;99.90;;;;;;5080320;28;20323;-79
2023/10/02 02:59:08;;;;;;;;;;;16.80;99.90;;;;;;5096438;28;19932;-80
2023/10/02 03:01:34;;;;;;;;;;;16.80;99.90;;;;;;5084190;28;21525;-80
2023/10/02 03:04:11;;;;;;;;;;;16.80;99.90;;;;;;5099683;28;19964;-80
2023/10/02 03:06:37;;;;;;;;;;;16.80;99.90;;;;;;5116939;27;19980;-80
2023/10/02 03:09:05;;;;;;;;;;;16.80;99.90;;;;;;5095611;28;20584;-79
2023/10/02 03:11:32;;;;;;;;;;;16.80;99.90;;;;;;5096053;28;19924;-79
2023/10/02 03:14:12;;;;;;;;;;;16.80;99.90;;;;;;5083422;28;19924;-79
2023/10/02 03:16:38;;;;;;;;;;;16.80;99.90;;;;;;5079949;28;19928;-80
2023/10/02 03:19:07;;;;;;;;;;;16.90;99.90;;;;;;5096278;28;19974;-80
2023/10/02 03:21:34;;;;;;;;;;;16.80;99.90;;;;;;5080354;27;19939;-80
2023/10/02 03:24:04;;;;;;;;;;;16.80;99.90;;;;;;5083914;28;19924;-80
2023/10/02 03:29:02;;;;;;;;;;;16.80;99.90;;;;;;5094320;28;19974;-80
2023/10/02 03:31:34;;;;;;;;;;;16.80;99.90;;;;;;5082699;28;20414;-79
2023/10/02 03:36:48;;;;;;;;;;;16.80;99.90;;;;;;5097310;28;19979;-79
2023/10/02 03:39:23;;;;;;;;;;;16.80;99.90;;;;;;5097353;28;19923;-79
2023/10/02 03:41:50;;;;;;;;;;;16.70;99.90;;;;;;5081745;28;20409;-79
2023/10/02 03:44:16;;;;;;;;;;;16.70;99.90;;;;;;5081443;28;19959;-79
2023/10/02 03:46:42;;;;;;;;;;;16.70;99.90;;;;;;5080059;28;19972;-79
2023/10/02 03:49:08;;;;;;;;;;;16.70;99.90;;;;;;5085018;28;19928;-80
2023/10/02 03:51:40;;;;;;;;;;;16.60;99.90;;;;;;5099965;28;19924;-79
2023/10/02 03:54:22;;;;;;;;;;;16.60;99.90;;;;;;5089258;28;19935;-79
2023/10/02 03:56:49;;;;;;;;;;;16.60;99.90;;;;;;5096925;27;19950;-80
2023/10/02 03:59:21;;;;;;;;;;;16.60;99.90;;;;;;5134650;27;19928;-80
2023/10/02 04:01:50;;;;;;;;;;;16.50;99.90;;;;;;5092925;28;19927;-79
2023/10/02 04:06:42;;;;;;;;;;;16.50;99.90;;;;;;5102539;28;19924;-79
2023/10/02 04:11:45;;;;;;;;;;;16.50;99.90;;;;;;5102565;28;19931;-80
2023/10/02 04:17:14;;;;;;;;;;;16.40;99.90;;;;;;5101271;28;19976;-79
2023/10/02 04:19:47;;;;;;;;;;;16.50;99.90;;;;;;5130316;27;19928;-80
2023/10/02 04:22:35;;;;;;;;;;;16.50;99.90;;;;;;5088899;28;19924;-80
2023/10/02 04:25:04;;;;;;;;;;;16.40;99.90;;;;;;5097288;28;20001;-79
2023/10/02 04:32:48;;;;;;;;;;;16.50;99.90;;;;;;5096849;28;19928;-79
2023/10/02 04:38:08;;;;;;;;;;;16.40;99.90;;;;;;5133729;27;20350;-79
2023/10/02 04:40:44;;;;;;;;;;;16.40;99.90;;;;;;5113150;27;20080;-80
2023/10/02 04:43:19;;;;;;;;;;;16.40;99.90;;;;;;5098317;27;19935;-79
2023/10/02 04:45:48;;;;;;;;;;;16.40;99.90;;;;;;5086481;28;20382;-80
2023/10/02 04:48:16;;;;;;;;;;;16.30;99.90;;;;;;5086841;28;19950;-81
2023/10/02 04:50:45;;;;;;;;;;;16.30;99.90;;;;;;5094534;28;19935;-80
2023/10/02 04:55:43;;;;;;;;;;;16.30;99.90;;;;;;5101095;27;20234;-80
2023/10/02 04:58:19;;;;;;;;;;;16.20;99.90;;;;;;5103549;28;19939;-80
2023/10/02 05:03:30;;;;;;;;;;;16.20;99.90;;;;;;5096579;28;19931;-81
2023/10/02 05:05:58;;;;;;;;;;;16.20;99.90;;;;;;5099986;28;19977;-81
2023/10/02 05:08:40;;;;;;;;;;;16.20;99.90;;;;;;5094822;28;20383;-81
2023/10/02 05:11:07;;;;;;;;;;;16.10;99.90;;;;;;5087075;27;19927;-81
2023/10/02 05:13:59;;;;;;;;;;;16.10;99.90;;;;;;5102158;28;19924;-81
2023/10/02 05:16:32;;;;;;;;;;;16.10;99.90;;;;;;5118603;27;19931;-81
2023/10/02 05:18:58;;;;;;;;;;;16.10;99.90;;;;;;5085730;28;20051;-81
2023/10/02 05:21:38;;;;;;;;;;;16.10;99.90;;;;;;5101468;28;19923;-81
2023/10/02 05:24:05;;;;;;;;;;;16.10;99.90;;;;;;5135958;27;20302;-82
2023/10/02 05:26:36;;;;;;;;;;;16.00;99.90;;;;;;5087273;28;20065;-82
2023/10/02 05:29:05;;;;;;;;;;;16.00;99.90;;;;;;5080747;28;20458;-82
2023/10/02 05:31:35;;;;;;;;;;;16.00;99.90;;;;;;5086459;28;19923;-81
2023/10/02 05:34:23;;;;;;;;;;;16.00;99.90;;;;;;5099362;28;19927;-81
2023/10/02 05:39:40;;;;;;;;;;;15.90;99.90;;;;;;5100471;28;19924;-81
2023/10/02 05:42:16;;;;;;;;;;;15.90;99.90;;;;;;5102082;28;20344;-81
2023/10/02 05:44:42;;;;;;;;;;;15.90;99.90;;;;;;5098554;28;20335;-81
2023/10/02 05:47:15;;;;;;;;;;;15.80;99.90;;;;;;5088370;28;20381;-81
2023/10/02 05:49:47;;;;;;;;;;;15.80;99.90;;;;;;5111756;27;20400;-81
2023/10/02 05:52:18;;;;;;;;;;;15.80;99.90;;;;;;5085083;27;19931;-81
2023/10/02 05:54:53;;;;;;;;;;;15.80;99.90;;;;;;5079631;28;19928;-81
2023/10/02 05:57:19;;;;;;;;;;;15.80;99.90;;;;;;5097075;28;19928;-81
2023/10/02 05:59:47;;;;;;;;;;;15.80;99.90;;;;;;5097941;28;20014;-81
2023/10/02 06:02:19;;;;;;;;;;;15.80;99.90;;;;;;5081598;28;20296;-81
2023/10/02 06:04:49;;;;;;;;;;;15.80;99.90;;;;;;5084701;28;19927;-81
2023/10/02 06:07:19;;;;;;;;;;;15.70;99.90;;;;;;5095259;28;19924;-81
2023/10/02 06:09:46;;;;;;;;;;;15.70;99.90;;;;;;5083575;28;20353;-81
2023/10/02 06:12:12;;;;;;;;;;;15.80;99.90;;;;;;5084939;28;19925;-81
2023/10/02 06:14:39;;;;;;;;;;;15.80;99.90;;;;;;5081690;28;20293;-81
2023/10/02 06:17:10;;;;;;;;;;;15.80;99.90;;;;;;5133976;27;19927;-81
2023/10/02 06:19:42;;;;;;;;;;;15.80;99.90;;;;;;5078198;28;20000;-81
2023/10/02 06:22:14;;;;;;;;;;;15.70;99.90;;;;;;5080858;28;20382;-81
2023/10/02 06:24:42;;;;;;;;;;;15.80;99.90;;;;;;5097573;28;20283;-81
2023/10/02 06:27:17;;;;;;;;;;;15.90;99.90;;;;;;5096719;28;20333;-81
2023/10/02 06:29:44;;;;;;;;;;;15.90;99.90;;;;;;5081700;28;21126;-81
2023/10/02 06:32:30;;;;;;;;;;;15.90;99.90;;;;;;5097289;28;19934;-81
2023/10/02 06:34:57;;;;;;;;;;;15.90;99.90;;;;;;5081418;28;19934;-81
2023/10/02 06:37:30;;;;;;;;;;;16.00;99.90;;;;;;5082743;28;19923;-81
2023/10/02 06:40:05;;;;;;;;;;;16.00;99.90;;;;;;5134910;27;20397;-81
2023/10/02 06:42:32;;;;;;;;;;;16.10;99.90;;;;;;5098751;28;20158;-81
2023/10/02 06:45:01;;;;;;;;;;;16.10;99.90;;;;;;5086167;28;20023;-81
2023/10/02 06:47:32;;;;;;;;;;;16.10;99.90;;;;;;5099706;28;19928;-81
2023/10/02 06:50:21;;;;;;;;;;;16.10;99.90;;;;;;5084059;28;20378;-81
2023/10/02 06:52:49;;;;;;;;;;;16.10;99.90;;;;;;5078790;28;19928;-81
2023/10/02 06:55:17;;;;;;;;;;;16.20;99.90;;;;;;5076893;28;19928;-81
2023/10/02 06:57:49;;;;;;;;;;;16.20;99.90;;;;;;5094851;28;19931;-81
2023/10/02 07:00:19;;;;;;;;;;;16.20;99.90;;;;;;5101801;28;19935;-81
2023/10/02 07:02:56;;;;;;;;;;;16.20;99.90;;;;;;5078917;28;19930;-80
2023/10/02 07:05:27;;;;;;;;;;;16.30;99.90;;;;;;5095166;28;19923;-80
2023/10/02 07:08:00;;;;;;;;;;;16.30;99.90;;;;;;5083269;28;19924;-80
2023/10/02 07:10:26;;;;;;;;;;;16.30;99.90;;;;;;5080173;28;20291;-80
2023/10/02 07:12:55;;;;;;;;;;;16.40;99.90;;;;;;5097853;28;20050;-80
2023/10/02 07:15:22;;;;;;;;;;;16.40;99.90;;;;;;5101244;28;19938;-80
2023/10/02 07:17:48;;;;;;;;;;;16.50;99.90;;;;;;5098898;28;20018;-80
2023/10/02 07:20:23;;;;;;;;;;;16.50;99.90;;;;;;5081380;28;20022;-80
2023/10/02 07:22:51;;;;;;;;;;;16.50;99.90;;;;;;5082073;28;19970;-80
2023/10/02 07:25:20;;;;;;;;;;;16.50;99.90;;;;;;5083004;28;19928;-81
2023/10/02 07:27:48;;;;;;;;;;;16.50;99.90;;;;;;5079727;28;19975;-79
2023/10/02 07:30:25;;;;;;;;;;;16.50;99.90;;;;;;5101616;28;19935;-80
2023/10/02 07:32:51;;;;;;;;;;;16.50;99.90;;;;;;5082228;28;20598;-80
2023/10/02 07:35:21;;;;;;;;;;;16.60;99.90;;;;;;5086968;28;19924;-80
2023/10/02 07:37:58;;;;;;;;;;;16.60;99.90;;;;;;5082834;28;19932;-80
2023/10/02 07:40:48;;;;;;;;;;;16.60;99.90;;;;;;5099917;28;19924;-80
2023/10/02 07:43:14;;;;;;;;;;;16.60;99.90;;;;;;5083800;28;19959;-80
2023/10/02 07:45:40;;;;;;;;;;;16.70;99.90;;;;;;5095404;28;19963;-81
2023/10/02 07:48:12;;;;;;;;;;;16.80;99.90;;;;;;5131692;27;20030;-80
2023/10/02 07:50:44;;;;;;;;;;;16.80;99.90;;;;;;5085144;28;19934;-80
2023/10/02 07:53:09;;;;;;;;;;;16.90;99.90;;;;;;5095450;28;20232;-80
2023/10/02 07:55:39;;;;;;;;;;;17.00;99.90;;;;;;5085913;28;19924;-80
2023/10/02 07:58:05;;;;;;;;;;;17.10;99.90;;;;;;5082877;28;19924;-81
2023/10/02 08:00:33;;;;;;;;;;;17.30;99.90;;;;;;5082175;28;19934;-80
2023/10/02 08:03:02;;;;;;;;;;;17.40;99.90;;;;;;5081975;28;19928;-81
2023/10/02 08:05:28;;;;;;;;;;;17.50;99.90;;;;;;5115570;27;19927;-80
2023/10/02 08:08:10;;;;;;;;;;;17.60;99.90;;;;;;5096003;28;20025;-80
2023/10/02 08:10:52;;;;;;;;;;;17.60;99.90;;;;;;5095683;28;19924;-80
2023/10/02 08:13:33;;;;;;;;;;;17.70;99.90;;;;;;5096491;28;19977;-81
2023/10/02 08:16:01;;;;;;;;;;;17.80;99.90;;;;;;5081880;28;20340;-81
2023/10/02 08:18:28;;;;;;;;;;;17.80;99.90;;;;;;5082523;28;20390;-80
2023/10/02 08:20:55;;;;;;;;;;;17.90;99.90;;;;;;5133932;27;19996;-80
2023/10/02 08:23:23;;;;;;;;;;;18.00;99.90;;;;;;5082081;28;19932;-79
2023/10/02 08:26:00;;;;;;;;;;;18.30;99.90;;;;;;5080898;28;19930;-80
2023/10/02 08:28:28;;;;;;;;;;;18.40;99.90;;;;;;5095618;28;19975;-80
2023/10/02 08:30:59;;;;;;;;;;;18.50;99.90;;;;;;5111716;27;20355;-80
2023/10/02 08:33:26;;;;;;;;;;;18.70;99.90;;;;;;5101213;28;19924;-80
2023/10/02 08:35:51;;;;;;;;;;;18.70;99.90;;;;;;5081289;28;19945;-80
2023/10/02 08:38:24;;;;;;;;;;;18.90;99.90;;;;;;5117956;27;19923;-80
2023/10/02 08:40:59;;;;;;;;;;;19.00;99.90;;;;;;5086818;28;19924;-81
2023/10/02 08:43:25;;;;;;;;;;;19.10;99.90;;;;;;5105005;28;20123;-80
2023/10/02 08:45:51;;;;;;;;;;;19.20;99.90;;;;;;5102235;28;21247;-79
2023/10/02 08:48:20;;;;;;;;;;;19.20;99.90;;;;;;5101516;28;19928;-80
2023/10/02 08:50:49;;;;;;;;;;;19.10;99.90;;;;;;5087759;28;20019;-80
2023/10/02 08:53:21;;;;;;;;;;;19.20;99.90;;;;;;5081751;28;20451;-78
2023/10/02 08:56:59;;;;;;;;;;;19.20;99.90;;;;;;5098941;27;20283;-80
2023/10/02 08:59:17;;;;;;;;;;;19.30;99.90;;;;;;5096018;28;19932;-77
2023/10/02 09:01:49;;;;;;;;;;;19.30;99.90;;;;;;5086330;27;19931;-77
2023/10/02 09:04:22;;;;;;;;;;;19.40;99.90;;;;;;5083580;28;19923;-80
2023/10/02 09:06:53;;;;;;;;;;;19.40;99.90;;;;;;5087890;28;19928;-78
2023/10/02 09:11:57;;;;;;;;;;;19.40;99.90;;;;;;5105361;28;19924;-78
2023/10/02 09:19:48;;;;;;;;;;;19.50;99.90;;;;;;5135884;27;20018;-78
2023/10/02 09:22:14;;;;;;;;;;;19.50;99.90;;;;;;5085876;28;20301;-78
2023/10/02 09:24:41;;;;;;;;;;;19.40;99.90;;;;;;5098225;28;20404;-77
2023/10/02 09:32:47;;;;;;;;;;;19.60;99.90;;;;;;5098751;28;19931;-78
2023/10/02 09:35:21;;;;;;;;;;;19.70;99.90;;;;;;5078973;28;19935;-78
2023/10/02 09:37:55;;;;;;;;;;;19.80;99.90;;;;;;5099429;28;20267;-78
2023/10/02 09:40:24;;;;;;;;;;;19.90;99.90;;;;;;5100850;27;20384;-78
2023/10/02 09:44:57;;;;;;;39.58;25.58;;;20.10;99.90;;;;;;5154926;27;20465;-79
2023/10/02 09:47:30;;;;;;;35.50;24.52;;;20.20;99.90;;;;;;5130727;27;20070;-82
2023/10/02 09:50:11;;;;;;;39.35;28.08;;;20.20;99.90;;;;;;5132111;27;20412;-81
2023/10/02 09:52:59;;;;;;;36.88;26.50;;;20.10;99.90;;;;;;5144702;27;20072;-81
2023/10/02 09:56:03;;;;;;;39.10;27.85;;;20.00;99.90;;;;;;5129819;27;20505;-81
2023/10/02 09:58:35;;;;;;;35.58;26.67;;;20.00;99.90;;;;;;5107498;27;20050;-79
2023/10/02 10:01:38;;;;;;;39.50;28.60;;;19.90;99.90;;;;;;5143354;27;20062;-79
2023/10/02 10:04:32;;;;;;;41.17;28.02;;;19.80;99.90;;;;;;5144951;27;20082;-78
2023/10/02 10:07:09;;;;;;;40.13;28.70;;;19.80;99.90;;;;;;5147232;27;20037;-80
2023/10/02 10:09:51;;;;;;;42.55;29.70;;;19.80;99.90;;;;;;5129287;27;20050;-80
2023/10/02 10:13:09;;;;;;;40.83;28.73;;;19.80;99.90;;;;;;5140891;27;20468;-79
2023/10/02 10:15:34;;;;;;;42.73;29.60;;;19.80;99.90;;;;;;5138769;27;20087;-80
2023/10/02 10:18:12;;;;;;;41.40;29.83;;;19.80;99.90;;;;;;5125608;27;20653;-79
2023/10/02 10:20:38;;;;;;;38.80;28.27;;;19.80;99.90;;;;;;5126748;27;20049;-79
2023/10/02 10:23:31;;;;;;;41.33;29.83;;;19.70;99.90;;;;;;5131301;27;20041;-79
2023/10/02 10:26:08;;;;;;;39.22;27.63;;;19.70;99.90;;;;;;5121168;27;20078;-78
2023/10/02 10:28:50;;;;;;;43.65;30.30;;;19.70;99.90;;;;;;5125172;27;20061;-79
2023/10/02 10:31:28;;;;;;;41.00;29.92;;;19.60;99.90;;;;;;5148636;27;20585;-79
2023/10/02 10:33:56;;;;;;;47.13;30.88;;;19.70;99.90;;;;;;5131060;27;20054;-78
2023/10/02 10:36:54;;;;;;;46.65;31.45;;;19.60;99.90;;;;;;5129156;27;20058;-78
2023/10/02 10:39:52;;;;;;;45.08;29.95;;;19.70;99.90;;;;;;5099523;27;20050;-79
2023/10/02 10:42:23;;;;;;;46.35;32.05;;;19.70;99.90;;;;;;5141346;27;20450;-77
2023/10/02 10:44:52;;;;;;;42.17;30.02;;;19.70;99.90;;;;;;5124328;27;20070;-77
2023/10/02 10:47:18;;;;;;;45.63;31.30;;;19.90;99.90;;;;;;5145330;27;20047;-78
2023/10/02 10:49:53;;;;;;;46.35;33.17;;;19.90;99.90;;;;;;5140234;27;20062;-79
2023/10/02 10:52:35;;;;;;;50.58;34.33;;;20.00;99.90;;;;;;5126181;27;20062;-78
2023/10/02 10:55:04;;;;;;;44.70;31.35;;;20.10;99.90;;;;;;5121683;27;20039;-78
2023/10/02 10:57:51;;;;;;;49.90;34.13;;;20.10;99.90;;;;;;5118812;27;20042;-77
2023/10/02 11:00:27;;;;;;;46.22;32.75;;;20.10;99.90;;;;;;5126215;27;20529;-77
2023/10/02 11:03:07;;;;;;;47.00;31.95;;;20.20;99.90;;;;;;5135904;27;20074;-79
2023/10/02 11:05:37;;;;;;;47.58;31.95;;;20.20;99.90;;;;;;5122089;27;20054;-78
2023/10/02 11:08:37;;;;;;;49.45;30.70;;;20.30;99.90;;;;;;5129041;27;20118;-78
2023/10/02 11:11:11;;;;;;;45.72;30.35;;;20.30;99.90;;;;;;5089338;27;20078;-77
2023/10/02 11:13:50;;;;;;;44.70;30.90;;;20.30;99.90;;;;;;5118528;27;20370;-78
2023/10/02 11:16:37;;;;;;;43.42;29.33;;;20.30;99.90;;;;;;5133110;27;20039;-78
2023/10/02 11:19:13;;;;;;;39.28;29.88;;;20.40;99.90;;;;;;5131360;27;20031;-78
2023/10/02 11:21:45;;;;;;;46.97;30.95;;;20.30;99.90;;;;;;5132846;27;20537;-78
2023/10/02 11:24:20;;;;;;;45.50;31.35;;;20.30;99.90;;;;;;5135702;27;20031;-78
2023/10/02 11:26:46;;;;;;;41.78;29.50;;;20.40;99.90;;;;;;5114282;27;20066;-78
2023/10/02 11:29:20;;;;;;;44.63;30.77;;;20.50;99.90;;;;;;5129440;27;20039;-78
2023/10/02 11:32:19;;;;;;;40.72;27.73;;;20.60;99.90;;;;;;5113592;27;20039;-79
2023/10/02 11:34:58;;;;;;;37.88;28.48;;;20.60;99.90;;;;;;5119457;27;20133;-78
2023/10/02 11:37:26;;;;;;;;;;;20.70;99.90;;;;;;5128157;27;20043;-78
2023/10/02 11:39:54;;;;;;;36.72;28.30;;;20.70;99.90;;;;;;5117760;27;19970;-78
2023/10/02 11:42:20;;;;;;;36.88;28.48;;;20.70;99.90;;;;;;5133849;27;20050;-78
2023/10/02 11:44:46;;;;;;;39.78;27.27;;;20.80;99.90;;;;;;5125906;27;20575;-78
2023/10/02 11:47:15;;;;;;;39.08;28.67;;;21.00;99.90;;;;;;5131292;27;20426;-78
2023/10/02 11:49:42;;;;;;;39.40;27.53;;;20.90;99.90;;;;;;5131074;27;20050;-78
2023/10/02 11:52:09;;;;;;;39.80;30.83;;;21.10;99.90;;;;;;5128404;27;20505;-78
2023/10/02 11:54:41;;;;;;;35.90;28.10;;;21.10;99.90;;;;;;5116375;27;20694;-77
2023/10/02 11:57:10;;;;;;;45.33;31.20;;;21.10;99.90;;;;;;5128844;27;20150;-78
2023/10/02 11:59:42;;;;;;;39.05;29.55;;;21.10;99.90;;;;;;5112868;27;20042;-77
2023/10/02 12:02:16;;;;;;;41.50;31.10;;;21.10;99.90;;;;;;5112227;27;20035;-77
2023/10/02 12:04:44;;;;;;;39.05;31.25;;;21.10;99.90;;;;;;5114051;27;20093;-77
2023/10/02 12:07:10;;;;;;;45.13;31.90;;;21.20;99.90;;;;;;5116902;27;20345;-77
2023/10/02 12:09:36;;;;;;;39.38;30.17;;;21.20;99.90;;;;;;5113386;27;20584;-78
2023/10/02 12:12:03;;;;;;;43.10;32.35;;;21.20;99.90;;;;;;5115202;27;20050;-78
2023/10/02 12:14:29;;;;;;;38.88;30.23;;;21.20;99.90;;;;;;5117021;27;20202;-78
2023/10/02 12:16:57;;;;;;;41.65;32.38;;;21.20;99.90;;;;;;5128758;27;20103;-78
2023/10/02 12:19:25;;;;;;;37.97;29.92;;;21.20;99.90;;;;;;5117140;27;20057;-83
2023/10/02 12:21:51;;;;;;;39.72;32.17;;;21.20;99.90;;;;;;5114923;27;20074;-83
2023/10/02 12:24:17;;;;;;;39.22;31.58;;;21.30;99.90;;;;;;5116477;27;20042;-83
2023/10/02 12:26:43;;;;;;;41.47;31.83;;;21.30;99.90;;;;;;5116133;27;20412;-83
2023/10/02 12:29:11;;;;;;;37.75;31.33;;;21.30;99.90;;;;;;5131964;27;20030;-83
2023/10/02 12:31:38;;;;;;;36.30;28.77;;;21.30;99.90;;;;;;5129069;27;20043;-83
2023/10/02 12:34:05;;;;;;;39.72;31.65;;;21.30;99.90;;;;;;5112099;27;20043;-85
2023/10/02 12:36:31;;;;;;;35.17;26.23;;;21.30;99.90;;;;;;5115744;27;20560;-83
2023/10/02 12:39:00;;;;;;;33.63;26.95;;;21.20;99.90;;;;;;5123845;27;20161;-83
2023/10/02 12:41:28;;;;;;;36.85;28.48;;;21.20;99.90;;;;;;5110380;27;20050;-82
2023/10/02 12:44:02;;;;;;;33.45;26.20;;;21.20;99.90;;;;;;5110484;27;20513;-83
2023/10/02 12:46:29;;;;;;;35.63;27.70;;;21.20;99.90;;;;;;5112824;27;20058;-84
2023/10/02 12:49:00;;;;;;;38.95;27.27;;;21.30;99.90;;;;;;5111302;27;20055;-83
2023/10/02 12:51:28;;;;;;;32.70;24.25;;;21.30;99.90;;;;;;5133343;27;20074;-83
2023/10/02 12:53:54;;;;;;;35.35;25.17;;;21.30;99.90;;;;;;5128557;27;20402;-83
2023/10/02 12:56:22;;;;;;;32.35;23.55;;;21.30;99.90;;;;;;5111172;27;20398;-83
2023/10/02 12:58:49;;;;;;;30.98;21.60;;;21.40;99.90;;;;;;5113018;27;20125;-83
2023/10/02 13:01:27;;;;;;;28.92;19.70;;;21.40;99.90;;;;;;5119312;27;20027;-77
2023/10/02 13:03:59;;;;;;;31.60;21.63;;;21.40;99.90;;;;;;5112048;27;20489;-78
2023/10/02 13:06:26;;;;;;;30.42;23.15;;;21.30;99.90;;;;;;5110556;27;20043;-78
2023/10/02 13:09:04;;;;;;;30.95;22.95;;;21.40;99.90;;;;;;5117885;27;20035;-78
2023/10/02 13:11:30;;;;;;;31.67;22.48;;;21.40;99.90;;;;;;5111470;27;20039;-78
2023/10/02 13:13:56;;;;;;;30.17;21.40;;;21.40;99.90;;;;;;5127701;27;20050;-78
2023/10/02 13:16:24;;;;;;;27.27;18.60;;;21.40;99.90;;;;;;5113871;27;20031;-78
2023/10/02 13:18:50;;;;;;;28.45;19.38;;;21.50;99.90;;;;;;5124982;27;20039;-78
2023/10/02 13:21:20;;;;;;;29.05;20.02;;;21.50;99.90;;;;;;5115554;27;20054;-78
2023/10/02 13:23:46;;;;;;;27.60;19.38;;;21.50;99.90;;;;;;5131906;27;20047;-78
2023/10/02 13:26:16;;;;;;;26.45;17.88;;;21.50;99.90;;;;;;5127539;27;20035;-78
2023/10/02 13:28:48;;;;;;;26.77;19.23;;;21.50;99.90;;;;;;5109711;27;20039;-78
2023/10/02 13:31:17;;;;;;;22.02;15.15;;;21.60;99.90;;;;;;5115345;27;20038;-78
2023/10/02 13:33:46;;;;;;;20.80;14.18;;;21.60;99.90;;;;;;5116277;27;20043;-78
2023/10/02 13:36:22;;;;;;;23.90;16.10;;;21.60;99.90;;;;;;5113807;27;20074;-78
2023/10/02 13:38:53;;;;;;;21.77;15.90;;;21.60;99.90;;;;;;5130164;27;20049;-77
2023/10/02 13:41:19;;;;;;;20.58;13.82;;;21.60;99.90;;;;;;5132672;27;20046;-77
2023/10/02 13:43:48;;;;;;;23.02;14.93;;;21.60;99.90;;;;;;5113299;27;20058;-78
2023/10/02 13:46:16;;;;;;;22.00;15.10;;;21.60;99.90;;;;;;5117878;27;20047;-78
2023/10/02 13:48:42;;;;;;;19.48;14.75;;;21.60;99.90;;;;;;5104232;27;20053;-83
2023/10/02 13:51:09;;;;;;;21.50;13.80;;;21.70;99.90;;;;;;5124929;27;20111;-82
2023/10/02 13:53:36;;;;;;;22.10;15.23;;;21.70;99.90;;;;;;5115342;27;20545;-82
2023/10/02 13:56:10;;;;;;;21.00;15.68;;;21.70;99.90;;;;;;5112760;27;20035;-82
2023/10/02 13:58:47;;;;;;;23.02;16.77;;;21.70;99.90;;;;;;5110500;27;20398;-83
2023/10/02 14:01:14;;;;;;;22.58;15.32;;;21.70;99.90;;;;;;5110085;27;20130;-78
2023/10/02 14:03:46;;;;;;;28.55;19.60;;;21.70;99.90;;;;;;5123432;27;20509;-77
2023/10/02 14:06:14;;;;;;;25.08;15.30;;;21.70;99.90;;;;;;5123746;27;20035;-77
2023/10/02 14:08:40;;;;;;;26.75;18.38;;;21.70;99.90;;;;;;5125842;27;20054;-77
2023/10/02 14:11:09;;;;;;;21.92;16.10;;;21.80;99.90;;;;;;5109688;27;20076;-78
2023/10/02 14:13:36;;;;;;;21.60;15.73;;;21.80;99.90;;;;;;5109818;27;20031;-78
2023/10/02 14:16:10;;;;;;;23.10;16.40;;;21.80;99.90;;;;;;5124944;27;20039;-84
2023/10/02 14:18:37;;;;;;;26.45;16.48;;;21.80;99.90;;;;;;5128933;27;20058;-84
2023/10/02 14:21:05;;;;;;;22.27;15.38;;;21.80;99.90;;;;;;5109631;27;20122;-84
2023/10/02 14:23:35;;;;;;;20.30;15.52;;;21.80;99.90;;;;;;5109155;27;20042;-84
2023/10/02 14:26:02;;;;;;;21.23;15.93;;;21.80;99.90;;;;;;5115433;27;20036;-84
2023/10/02 14:28:29;;;;;;;20.40;15.10;;;21.80;99.90;;;;;;5127507;27;20461;-83
2023/10/02 14:30:55;;;;;;;24.02;16.58;;;21.80;99.90;;;;;;5128416;27;20043;-83
2023/10/02 14:33:23;;;;;;;23.85;16.40;;;21.80;99.90;;;;;;5113918;27;20043;-83
2023/10/02 14:35:56;;;;;;;23.35;17.70;;;21.90;99.90;;;;;;5126687;27;20047;-84
2023/10/02 14:38:23;;;;;;;20.88;16.90;;;21.90;99.90;;;;;;5138969;27;20080;-83
2023/10/02 14:40:52;;;;;;;21.38;15.32;;;21.90;99.90;;;;;;5115523;27;20353;-83
2023/10/02 14:43:18;;;;;;;20.13;15.05;;;21.90;99.90;;;;;;5115380;27;20156;-83
2023/10/02 14:45:44;;;;;;;21.35;14.85;;;21.90;99.90;;;;;;5113515;27;20038;-83
2023/10/02 14:48:20;;;;;;;23.00;16.83;;;22.00;99.90;;;;;;5129935;27;20039;-83